Aeroporto :
LOGIN :

Iscrizione | Disclaimer

   EN    FR    IT 

 










Sommario :    VFR   VFR Marginale   IFR   IFR Intensivo   IFR Molto Intensivo
Visibilità : 
Base nubi : 
>= 8 km
>= 3000ft
5 / 8 km
1000 / 3000 ft
1500m / 5 km
500 / 1000 ft
800 / 1500m
200 / 500 ft
< 800m
< 200 ft
Simboli :   Temporali  Nebbia  Neve Forte  Precipitazioni Forti  Vento > 20 kt
SIGMETs :   Varie  Temporali  Ghiacco  Turbolenza  Onda orograficha  Ceneri Vulcaniche






- Altitudine del aeroporto : 1830 ft


EBLB - Butgenbach Elsenborn

ULTIMO METAR :
  • 240939Z AUTO 19004KT 9999 BKN006/// 05/04 Q1024 YLO

METARs OBSOLETI :
  • 240855Z AUTO 18005KT 9999 OVC006/// 05/04 Q1024 YLO
  • 240825Z AUTO 19004KT 9999 FEW005/// OVC012/// 05/04 Q1024 GRN
  • 240755Z AUTO 19003KT 9999 OVC003/// 05/04 Q1024 YLO
  • 240725Z AUTO 19004KT 7000 OVC004/// 05/04 Q1024 YLO
  • 240655Z AUTO 21004KT 8000 OVC005/// 05/04 Q1024 YLO

Previsioni scadute.



MetMap, La meteo Aeronautica in un colpo d'occhio ! - Copyright ORBIFLY Dicembre 2007 - Disclaimer

ORBIFLY MET'MAP TEAM :

Programmazione e sviluppo : Alexandra Zaïnal
Concezione : Baudouin d'Aumeries
Aiuto per la programmazione : Marc-Olivier Méhu
Supporto tecnico e logistico : Manuel Goepfert
Aiuto per la traduzione : Arnaldo La Scala

Contatto : metmap@orbifly.com




FONTI E CREDITI :

   NOAA